createdAt,value
2022-08-29T00:00:41.573Z,18.73
2022-08-29T00:02:44.565Z,18.73
2022-08-29T00:04:48.107Z,18.71
2022-08-29T00:06:51.164Z,18.70
2022-08-29T00:08:54.203Z,18.64
2022-08-29T00:10:58.564Z,18.58
2022-08-29T00:13:02.055Z,18.56
2022-08-29T00:15:06.216Z,18.55
2022-08-29T00:17:09.160Z,18.57
2022-08-29T00:19:12.272Z,18.55
2022-08-29T00:21:15.365Z,18.54
2022-08-29T00:23:18.493Z,18.54
2022-08-29T00:25:21.959Z,18.52
2022-08-29T00:27:26.429Z,18.48
2022-08-29T00:29:29.944Z,18.48
2022-08-29T00:31:33.133Z,18.46
2022-08-29T00:33:36.672Z,18.42
2022-08-29T00:35:44.030Z,18.42
2022-08-29T00:37:48.560Z,18.41
2022-08-29T00:39:51.704Z,18.41
2022-08-29T00:41:55.259Z,18.43
2022-08-29T00:43:59.778Z,18.41
2022-08-29T00:46:10.866Z,18.40
2022-08-29T00:48:15.932Z,18.35
2022-08-29T00:50:24.678Z,18.35
2022-08-29T00:52:32.498Z,18.33
2022-08-29T00:54:36.090Z,18.32
2022-08-29T00:56:39.629Z,18.28
2022-08-29T00:58:45.561Z,18.24
2022-08-29T01:00:50.431Z,18.21
2022-08-29T01:02:54.338Z,18.20
2022-08-29T01:04:57.872Z,18.15
2022-08-29T01:07:01.263Z,18.13
2022-08-29T01:09:04.945Z,18.12
2022-08-29T01:11:26.241Z,18.11
2022-08-29T01:13:34.968Z,18.07
2022-08-29T01:15:40.036Z,18.07
2022-08-29T01:17:47.140Z,18.07
2022-08-29T01:19:57.056Z,18.06
2022-08-29T01:22:04.604Z,18.04
2022-08-29T01:24:12.748Z,18.03
2022-08-29T01:26:17.147Z,18.00
2022-08-29T01:28:23.267Z,17.96
2022-08-29T01:30:26.369Z,17.95
2022-08-29T01:32:29.424Z,17.94
2022-08-29T01:34:32.726Z,17.88
2022-08-29T01:36:40.490Z,17.85
2022-08-29T01:38:43.906Z,17.82
2022-08-29T01:40:46.903Z,17.79
2022-08-29T01:42:51.263Z,17.79
2022-08-29T01:44:56.277Z,17.77
2022-08-29T01:47:03.185Z,17.81
2022-08-29T01:49:10.071Z,17.80
2022-08-29T01:51:14.160Z,17.80
2022-08-29T01:53:17.369Z,17.81
2022-08-29T01:55:20.371Z,17.79
2022-08-29T01:57:23.338Z,17.77
2022-08-29T01:59:29.043Z,17.75
2022-08-29T02:01:35.405Z,17.72
2022-08-29T02:03:38.464Z,17.71
2022-08-29T02:05:41.557Z,17.69
2022-08-29T02:07:44.560Z,17.65
2022-08-29T02:09:47.942Z,17.61
2022-08-29T02:11:52.467Z,17.61
2022-08-29T02:13:58.668Z,17.62
2022-08-29T02:16:03.352Z,17.60
2022-08-29T02:18:06.460Z,17.58
2022-08-29T02:20:10.632Z,17.55
2022-08-29T02:22:13.911Z,17.51
2022-08-29T02:24:26.306Z,17.46
2022-08-29T02:26:29.553Z,17.40
2022-08-29T02:28:33.416Z,17.34
2022-08-29T02:30:36.373Z,17.32
2022-08-29T02:32:40.730Z,17.30
2022-08-29T02:34:47.617Z,17.28
2022-08-29T02:36:51.860Z,17.26
2022-08-29T02:38:54.876Z,17.27
2022-08-29T02:40:58.160Z,17.28
2022-08-29T02:43:01.669Z,17.26
2022-08-29T02:45:05.748Z,17.24
2022-08-29T02:47:09.315Z,17.17
2022-08-29T02:49:13.853Z,17.11
2022-08-29T02:51:21.157Z,17.06
2022-08-29T02:53:27.060Z,17.01
2022-08-29T02:55:30.256Z,16.97
2022-08-29T02:57:33.260Z,16.95
2022-08-29T02:59:36.364Z,16.93
2022-08-29T03:01:39.510Z,16.89
2022-08-29T03:03:42.899Z,16.86
2022-08-29T03:05:47.727Z,16.81
2022-08-29T03:07:52.195Z,16.81
2022-08-29T03:09:55.169Z,16.81
2022-08-29T03:11:58.161Z,16.81
2022-08-29T03:14:01.396Z,16.76
2022-08-29T03:16:06.000Z,16.73
2022-08-29T03:18:09.325Z,16.72
2022-08-29T03:20:13.881Z,16.73
2022-08-29T03:22:18.486Z,16.72
2022-08-29T03:24:26.274Z,16.71
2022-08-29T03:26:30.127Z,16.69
2022-08-29T03:28:33.162Z,16.66
2022-08-29T03:30:36.847Z,16.67
2022-08-29T03:32:40.530Z,16.66
2022-08-29T03:34:43.773Z,16.65
2022-08-29T03:36:46.748Z,16.66
2022-08-29T03:38:51.075Z,16.68
2022-08-29T03:40:55.671Z,16.67
2022-08-29T03:43:03.237Z,16.67
2022-08-29T03:45:08.408Z,16.62
2022-08-29T03:47:11.355Z,16.59
2022-08-29T03:49:15.527Z,16.56
2022-08-29T03:51:19.535Z,16.54
2022-08-29T03:53:22.586Z,16.54
2022-08-29T03:55:27.213Z,16.53
2022-08-29T03:57:33.060Z,16.54
2022-08-29T03:59:36.059Z,16.53
2022-08-29T04:01:39.307Z,16.53
2022-08-29T04:03:42.716Z,16.53
2022-08-29T04:05:45.767Z,16.50
2022-08-29T04:07:56.069Z,16.50
2022-08-29T04:09:59.338Z,16.48
2022-08-29T04:12:04.351Z,16.46
2022-08-29T04:14:07.295Z,16.45
2022-08-29T04:16:11.205Z,16.44
2022-08-29T04:18:15.645Z,16.43
2022-08-29T04:20:25.881Z,16.43
2022-08-29T04:22:28.970Z,16.41
2022-08-29T04:24:32.392Z,16.39
2022-08-29T04:26:37.650Z,16.36
2022-08-29T04:28:42.222Z,16.34
2022-08-29T04:30:51.271Z,16.32
2022-08-29T04:32:55.042Z,16.30
2022-08-29T04:34:58.403Z,16.27
2022-08-29T04:37:01.395Z,16.27
2022-08-29T04:39:05.676Z,16.28
2022-08-29T04:41:10.560Z,16.26
2022-08-29T04:43:13.489Z,16.24
2022-08-29T04:45:19.936Z,16.24
2022-08-29T04:47:22.940Z,16.25
2022-08-29T04:49:26.003Z,16.26
2022-08-29T04:51:29.951Z,16.26
2022-08-29T04:53:32.936Z,16.28
2022-08-29T04:55:35.925Z,16.29
2022-08-29T04:57:40.077Z,16.22
2022-08-29T04:59:43.038Z,16.18
2022-08-29T05:01:47.491Z,16.16
2022-08-29T05:03:52.060Z,16.18
2022-08-29T05:05:57.773Z,16.17
2022-08-29T05:08:00.792Z,16.20
2022-08-29T05:10:07.268Z,16.27
2022-08-29T05:12:10.649Z,16.39
2022-08-29T05:14:13.826Z,16.51
2022-08-29T05:16:18.500Z,16.66
2022-08-29T05:18:23.364Z,16.82
2022-08-29T05:20:26.368Z,16.99
2022-08-29T05:22:29.356Z,17.15
2022-08-29T05:24:32.400Z,17.29
2022-08-29T05:26:38.412Z,17.43
2022-08-29T05:28:41.490Z,17.58
2022-08-29T05:30:44.496Z,17.71
2022-08-29T05:32:47.525Z,17.85
2022-08-29T05:34:52.269Z,17.99
2022-08-29T05:36:55.311Z,18.10
2022-08-29T05:38:58.377Z,18.21
2022-08-29T05:41:02.229Z,18.29
2022-08-29T05:43:05.412Z,18.43
2022-08-29T05:45:09.934Z,18.55
2022-08-29T05:47:14.872Z,18.69
2022-08-29T05:49:17.943Z,18.87
2022-08-29T05:51:24.212Z,19.02
2022-08-29T05:53:27.904Z,19.14
2022-08-29T05:55:31.211Z,19.30
2022-08-29T05:57:34.247Z,19.41
2022-08-29T05:59:38.246Z,19.53
2022-08-29T06:01:41.379Z,19.62
2022-08-29T06:03:46.134Z,19.74
2022-08-29T06:05:51.780Z,19.89
2022-08-29T06:07:56.120Z,20.04
2022-08-29T06:10:04.031Z,20.21
2022-08-29T06:12:07.956Z,20.36
2022-08-29T06:14:10.913Z,20.49
2022-08-29T06:16:15.053Z,20.61
2022-08-29T06:18:18.098Z,20.71
2022-08-29T06:20:26.013Z,20.82
2022-08-29T06:22:28.959Z,20.96
2022-08-29T06:24:34.194Z,21.09
2022-08-29T06:26:37.385Z,21.22
2022-08-29T06:28:41.847Z,21.33
2022-08-29T06:30:44.894Z,21.47
2022-08-29T06:32:47.886Z,21.61
2022-08-29T06:34:51.057Z,21.73
2022-08-29T06:36:54.040Z,21.87
2022-08-29T06:38:57.680Z,21.97
2022-08-29T06:41:04.964Z,22.12
2022-08-29T06:43:07.968Z,22.32
2022-08-29T06:45:11.864Z,22.47
2022-08-29T06:47:14.847Z,22.58
2022-08-29T06:49:19.312Z,22.68
2022-08-29T06:51:22.965Z,22.83
2022-08-29T06:53:31.934Z,22.81
2022-08-29T06:55:36.044Z,22.89
2022-08-29T06:57:44.371Z,23.04
2022-08-29T06:59:47.385Z,23.13
2022-08-29T07:01:50.512Z,23.29
2022-08-29T07:03:54.463Z,23.38
2022-08-29T07:05:57.480Z,23.51
2022-08-29T07:08:00.503Z,23.62
2022-08-29T07:10:03.520Z,23.71
2022-08-29T07:12:07.438Z,23.78
2022-08-29T07:14:12.689Z,23.87
2022-08-29T07:16:18.696Z,24.05
2022-08-29T07:18:22.188Z,24.25
2022-08-29T07:20:25.214Z,24.48
2022-08-29T07:22:28.219Z,24.65
2022-08-29T07:24:31.221Z,24.75
2022-08-29T07:26:38.695Z,24.90
2022-08-29T07:28:46.054Z,25.04
2022-08-29T07:30:51.805Z,25.25
2022-08-29T07:32:55.017Z,25.39
2022-08-29T07:34:58.108Z,25.46
2022-08-29T07:37:01.131Z,25.63
2022-08-29T07:39:07.476Z,25.73
2022-08-29T07:41:14.254Z,25.86
2022-08-29T07:43:20.126Z,25.95
2022-08-29T07:45:24.536Z,26.00
2022-08-29T07:47:28.979Z,26.06
2022-08-29T07:49:40.995Z,26.09
2022-08-29T07:51:44.937Z,26.13
2022-08-29T07:53:48.061Z,26.21
2022-08-29T07:55:51.234Z,26.30
2022-08-29T07:57:54.344Z,26.41
2022-08-29T07:59:57.578Z,26.51
2022-08-29T08:02:00.735Z,26.51
2022-08-29T08:04:05.664Z,26.60
2022-08-29T08:06:10.890Z,26.66
2022-08-29T08:08:14.928Z,26.69
2022-08-29T08:10:20.276Z,26.78
2022-08-29T08:12:25.734Z,26.90
2022-08-29T08:14:34.874Z,27.00
2022-08-29T08:16:38.708Z,26.97
2022-08-29T08:18:48.251Z,26.99
2022-08-29T08:20:53.307Z,27.06
2022-08-29T08:22:56.378Z,27.17
2022-08-29T08:24:59.417Z,27.28
2022-08-29T08:27:02.717Z,27.35
2022-08-29T08:29:05.748Z,27.44
2022-08-29T08:31:10.617Z,27.46
2022-08-29T08:33:13.863Z,27.51
2022-08-29T08:35:22.597Z,27.52
2022-08-29T08:37:27.881Z,27.65
2022-08-29T08:39:33.564Z,27.72
2022-08-29T08:41:46.082Z,27.75
2022-08-29T08:43:51.752Z,27.80
2022-08-29T08:45:56.561Z,27.86
2022-08-29T08:48:04.955Z,27.94
2022-08-29T08:50:13.764Z,28.07
2022-08-29T08:52:20.551Z,28.17
2022-08-29T08:54:26.862Z,28.29
2022-08-29T08:56:33.590Z,28.33
2022-08-29T08:58:44.480Z,28.37
2022-08-29T09:00:50.660Z,28.42
2022-08-29T09:03:03.632Z,28.43
2022-08-29T09:05:33.120Z,28.46
2022-08-29T09:07:46.654Z,28.55
2022-08-29T09:10:02.430Z,28.63
2022-08-29T09:12:17.047Z,28.71
2022-08-29T09:14:33.630Z,28.74
2022-08-29T09:16:40.950Z,28.76
2022-08-29T09:18:49.893Z,28.76
2022-08-29T09:20:58.014Z,28.92
2022-08-29T09:23:03.769Z,29.02
2022-08-29T09:25:10.687Z,29.11
2022-08-29T09:27:19.228Z,29.08
2022-08-29T09:29:22.365Z,29.09
2022-08-29T09:31:28.086Z,29.08
2022-08-29T09:33:41.481Z,29.05
2022-08-29T09:35:49.054Z,29.06
2022-08-29T09:38:03.612Z,29.06
2022-08-29T09:40:12.481Z,29.10
2022-08-29T09:42:22.990Z,29.03
2022-08-29T09:44:28.382Z,29.04
2022-08-29T09:46:31.600Z,29.05
2022-08-29T09:48:35.872Z,29.02
2022-08-29T09:50:39.026Z,29.17
2022-08-29T09:52:52.646Z,29.25
2022-08-29T09:54:55.935Z,29.40
2022-08-29T09:57:05.025Z,29.47
2022-08-29T09:59:14.360Z,29.55
2022-08-29T10:01:28.274Z,29.56
2022-08-29T10:03:36.189Z,29.65
2022-08-29T10:05:44.318Z,29.77
2022-08-29T10:07:49.743Z,29.85
2022-08-29T10:10:15.221Z,29.93
2022-08-29T10:12:26.425Z,29.92
2022-08-29T10:14:32.362Z,29.86
2022-08-29T10:16:41.321Z,29.88
2022-08-29T10:18:46.116Z,30.00
2022-08-29T10:20:54.298Z,30.07
2022-08-29T10:23:03.776Z,30.02
2022-08-29T10:25:10.646Z,30.00
2022-08-29T10:27:28.139Z,30.10
2022-08-29T10:29:52.088Z,30.23
2022-08-29T10:32:03.573Z,30.24
2022-08-29T10:34:18.264Z,30.30
2022-08-29T10:36:24.492Z,30.34
2022-08-29T10:38:45.329Z,30.44
2022-08-29T10:40:50.422Z,30.51
2022-08-29T10:43:07.777Z,30.39
2022-08-29T10:45:18.355Z,29.98
2022-08-29T10:47:27.599Z,29.97
2022-08-29T10:49:45.025Z,29.95
2022-08-29T10:51:56.090Z,29.64
2022-08-29T10:54:03.339Z,29.14
2022-08-29T10:56:12.092Z,28.93
2022-08-29T10:58:32.415Z,28.70
2022-08-29T11:00:40.971Z,28.45
2022-08-29T11:02:50.294Z,28.36
2022-08-29T11:04:56.743Z,28.29
2022-08-29T11:07:04.318Z,28.16
2022-08-29T11:09:11.053Z,28.14
2022-08-29T11:11:16.799Z,28.21
2022-08-29T11:13:25.173Z,28.12
2022-08-29T11:15:33.051Z,28.18
2022-08-29T11:17:40.740Z,28.32
2022-08-29T11:19:51.921Z,28.35
2022-08-29T11:21:57.675Z,28.44
2022-08-29T11:24:04.072Z,28.50
2022-08-29T11:26:13.006Z,28.60
2022-08-29T11:28:24.121Z,28.67
2022-08-29T11:30:36.325Z,28.74
2022-08-29T11:32:51.858Z,28.90
2022-08-29T11:35:05.543Z,29.05
2022-08-29T11:37:26.331Z,29.17
2022-08-29T11:39:57.398Z,29.23
2022-08-29T11:42:04.375Z,29.14
2022-08-29T11:44:15.510Z,29.10
2022-08-29T11:46:32.863Z,29.15
2022-08-29T11:48:39.594Z,29.21
2022-08-29T11:50:42.861Z,29.04
2022-08-29T11:52:54.832Z,28.99
2022-08-29T11:55:39.486Z,28.85
2022-08-29T11:57:51.233Z,28.65
2022-08-29T11:59:59.956Z,28.24
2022-08-29T12:02:03.329Z,28.11
2022-08-29T12:04:07.989Z,28.00
2022-08-29T12:06:25.901Z,27.89
2022-08-29T12:08:37.316Z,27.97
2022-08-29T12:10:53.600Z,27.98
2022-08-29T12:12:58.994Z,27.91
2022-08-29T12:15:03.545Z,27.65
2022-08-29T12:17:08.703Z,27.57
2022-08-29T12:19:11.699Z,27.70
2022-08-29T12:21:48.584Z,27.90
2022-08-29T12:23:51.717Z,28.00
2022-08-29T12:26:15.863Z,28.15
2022-08-29T12:28:37.615Z,28.15
2022-08-29T12:30:44.286Z,28.13
2022-08-29T12:32:56.560Z,28.08
2022-08-29T12:35:18.453Z,28.18
2022-08-29T12:37:45.152Z,28.26
2022-08-29T12:40:03.089Z,28.10
2022-08-29T12:42:16.524Z,28.07
2022-08-29T12:44:23.551Z,28.07
2022-08-29T12:46:31.008Z,28.16
2022-08-29T12:48:37.939Z,28.21
2022-08-29T12:50:44.149Z,28.20
2022-08-29T12:53:00.260Z,28.23
2022-08-29T12:55:21.365Z,28.28
2022-08-29T12:57:27.419Z,28.29
2022-08-29T12:59:30.904Z,28.37
2022-08-29T13:01:39.525Z,28.48
2022-08-29T13:03:42.750Z,28.57
2022-08-29T13:05:46.138Z,28.67
2022-08-29T13:07:56.296Z,28.58
2022-08-29T13:10:00.614Z,28.59
2022-08-29T13:12:11.818Z,28.53
2022-08-29T13:14:14.858Z,28.54
2022-08-29T13:16:27.496Z,28.60
2022-08-29T13:18:40.486Z,28.70
2022-08-29T13:21:13.139Z,28.90
2022-08-29T13:23:23.368Z,28.97
2022-08-29T13:25:26.405Z,29.08
2022-08-29T13:27:29.541Z,29.07
2022-08-29T13:29:36.467Z,29.10
2022-08-29T13:31:40.533Z,29.06
2022-08-29T13:34:17.789Z,29.00
2022-08-29T13:36:31.451Z,29.00
2022-08-29T13:38:34.979Z,28.98
2022-08-29T13:40:43.847Z,28.93
2022-08-29T13:42:46.957Z,28.87
2022-08-29T13:45:23.793Z,28.75
2022-08-29T13:47:29.265Z,28.68
2022-08-29T13:49:35.472Z,28.57
2022-08-29T13:51:38.528Z,28.47
2022-08-29T13:53:44.791Z,28.38
2022-08-29T13:55:48.856Z,28.27
2022-08-29T13:57:54.576Z,28.19
2022-08-29T13:59:58.387Z,28.13
2022-08-29T14:02:10.648Z,28.07
2022-08-29T14:04:37.012Z,27.96
2022-08-29T14:06:39.455Z,27.90
2022-08-29T14:08:45.356Z,27.95
2022-08-29T14:10:48.692Z,27.99
2022-08-29T14:12:51.856Z,28.09
2022-08-29T14:14:54.904Z,28.15
2022-08-29T14:16:58.634Z,28.13
2022-08-29T14:19:01.659Z,28.13
2022-08-29T14:21:04.881Z,28.17
2022-08-29T14:23:09.286Z,28.13
2022-08-29T14:25:13.915Z,28.11
2022-08-29T14:27:16.950Z,28.12
2022-08-29T14:29:20.131Z,28.15
2022-08-29T14:31:23.329Z,28.16
2022-08-29T14:33:26.409Z,28.17
2022-08-29T14:35:32.066Z,28.17
2022-08-29T14:37:35.273Z,28.18
2022-08-29T14:39:40.250Z,28.19
2022-08-29T14:41:43.490Z,28.25
2022-08-29T14:43:46.529Z,28.35
2022-08-29T14:45:49.601Z,28.43
2022-08-29T14:47:52.801Z,28.53
2022-08-29T14:49:55.854Z,28.54
2022-08-29T14:51:58.939Z,28.62
2022-08-29T14:54:01.941Z,28.75
2022-08-29T14:56:06.850Z,28.86
2022-08-29T14:58:09.848Z,28.90
2022-08-29T15:00:15.907Z,28.92
2022-08-29T15:02:20.022Z,28.99
2022-08-29T15:04:35.866Z,29.08
2022-08-29T15:06:42.130Z,29.17
2022-08-29T15:08:45.270Z,29.18
2022-08-29T15:10:48.273Z,29.20
2022-08-29T15:12:58.311Z,29.18
2022-08-29T15:15:01.356Z,29.10
2022-08-29T15:17:07.906Z,28.98
2022-08-29T15:21:34.377Z,28.88
2022-08-29T15:23:37.667Z,28.84
2022-08-29T15:25:45.146Z,28.81
2022-08-29T15:27:56.549Z,28.78
2022-08-29T15:30:00.145Z,28.76
2022-08-29T15:32:03.543Z,28.75
2022-08-29T15:34:06.548Z,28.68
2022-08-29T15:36:10.186Z,28.58
2022-08-29T15:38:13.210Z,28.53
2022-08-29T15:40:16.607Z,28.50
2022-08-29T15:42:24.109Z,28.43
2022-08-29T15:44:29.647Z,28.34
2022-08-29T15:46:33.727Z,28.35
2022-08-29T15:48:42.309Z,28.29
2022-08-29T15:50:45.442Z,28.14
2022-08-29T15:52:48.455Z,28.06
2022-08-29T15:54:52.259Z,28.01
2022-08-29T15:56:55.523Z,27.98
2022-08-29T15:58:58.564Z,27.94
2022-08-29T16:01:04.445Z,27.92
2022-08-29T16:03:07.836Z,27.91
2022-08-29T16:05:13.360Z,27.90
2022-08-29T16:07:17.843Z,27.86
2022-08-29T16:09:21.761Z,27.82
2022-08-29T16:11:24.868Z,27.78
2022-08-29T16:13:28.083Z,27.77
2022-08-29T16:15:33.998Z,27.74
2022-08-29T16:17:39.151Z,27.74
2022-08-29T16:19:42.664Z,27.75
2022-08-29T16:21:45.997Z,27.76
2022-08-29T16:23:49.451Z,27.76
2022-08-29T16:25:52.466Z,27.73
2022-08-29T16:27:57.196Z,27.73
2022-08-29T16:30:01.372Z,27.72
2022-08-29T16:32:05.785Z,27.73
2022-08-29T16:34:10.209Z,27.69
2022-08-29T16:36:18.432Z,27.70
2022-08-29T16:38:21.861Z,27.70
2022-08-29T16:40:25.191Z,27.72
2022-08-29T16:42:30.596Z,27.69
2022-08-29T16:44:36.820Z,27.70
2022-08-29T16:46:39.955Z,27.72
2022-08-29T16:48:43.386Z,27.72
2022-08-29T16:50:48.307Z,27.71
2022-08-29T16:52:51.450Z,27.71
2022-08-29T16:54:54.599Z,27.74
2022-08-29T16:56:57.996Z,27.72
2022-08-29T16:59:00.324Z,27.68
2022-08-29T17:01:03.700Z,27.68
2022-08-29T17:03:07.119Z,27.70
2022-08-29T17:05:12.652Z,27.67
2022-08-29T17:07:19.850Z,27.61
2022-08-29T17:09:23.016Z,27.55
2022-08-29T17:11:25.169Z,27.51
2022-08-29T17:13:27.122Z,27.47
2022-08-29T17:15:29.008Z,27.45
2022-08-29T17:17:32.475Z,27.41
2022-08-29T17:19:35.498Z,27.31
2022-08-29T17:21:39.004Z,27.23
2022-08-29T17:23:44.179Z,27.23
2022-08-29T17:25:47.241Z,27.13
2022-08-29T17:28:14.136Z,27.08
2022-08-29T17:30:14.460Z,27.05
2022-08-29T17:32:21.160Z,26.99
2022-08-29T17:34:24.441Z,26.96
2022-08-29T17:36:27.461Z,26.88
2022-08-29T17:38:31.073Z,26.82
2022-08-29T17:40:35.844Z,26.72
2022-08-29T17:42:38.923Z,26.67
2022-08-29T17:44:41.901Z,26.62
2022-08-29T17:46:45.425Z,26.58
2022-08-29T17:48:48.465Z,26.55
2022-08-29T17:50:52.407Z,26.53
2022-08-29T17:52:55.411Z,26.54
2022-08-29T17:54:58.669Z,26.52
2022-08-29T17:57:03.484Z,26.45
2022-08-29T17:59:06.557Z,26.43
2022-08-29T18:01:15.718Z,26.40
2022-08-29T18:03:19.496Z,26.39
2022-08-29T18:05:22.515Z,26.32
2022-08-29T18:07:25.557Z,26.29
2022-08-29T18:09:31.411Z,26.26
2022-08-29T18:11:38.953Z,26.21
2022-08-29T18:13:43.877Z,26.21
2022-08-29T18:15:47.599Z,26.12
2022-08-29T18:17:53.833Z,26.08
2022-08-29T18:19:56.844Z,26.03
2022-08-29T18:22:00.042Z,25.99
2022-08-29T18:24:03.648Z,25.96
2022-08-29T18:26:09.434Z,25.89
2022-08-29T18:28:12.511Z,25.79
2022-08-29T18:30:17.057Z,25.73
2022-08-29T18:32:20.711Z,25.68
2022-08-29T18:34:25.796Z,25.63
2022-08-29T18:36:28.983Z,25.58
2022-08-29T18:38:32.108Z,25.55
2022-08-29T18:40:39.335Z,25.52
2022-08-29T18:42:42.791Z,25.49
2022-08-29T18:44:45.921Z,25.45
2022-08-29T18:46:50.548Z,25.42
2022-08-29T18:48:53.938Z,25.37
2022-08-29T18:50:57.896Z,25.31
2022-08-29T18:53:01.038Z,25.28
2022-08-29T18:55:04.643Z,25.22
2022-08-29T18:57:09.166Z,25.17
2022-08-29T18:59:12.483Z,25.14
2022-08-29T19:01:26.939Z,25.10
2022-08-29T19:03:32.535Z,25.05
2022-08-29T19:05:36.514Z,24.98
2022-08-29T19:07:39.758Z,24.95
2022-08-29T19:09:43.503Z,24.91
2022-08-29T19:11:46.752Z,24.88
2022-08-29T19:13:52.552Z,24.83
2022-08-29T19:15:57.724Z,24.81
2022-08-29T19:18:01.013Z,24.75
2022-08-29T19:20:27.443Z,24.68
2022-08-29T19:22:30.698Z,24.61
2022-08-29T19:24:33.920Z,24.53
2022-08-29T19:26:38.825Z,24.49
2022-08-29T19:28:42.509Z,24.45
2022-08-29T19:30:46.314Z,24.40
2022-08-29T19:32:49.347Z,24.34
2022-08-29T19:34:53.467Z,24.30
2022-08-29T19:36:57.778Z,24.30
2022-08-29T19:39:00.807Z,24.26
2022-08-29T19:41:05.488Z,24.19
2022-08-29T19:43:14.210Z,24.16
2022-08-29T19:45:19.198Z,24.14
2022-08-29T19:47:22.210Z,24.09
2022-08-29T19:49:25.256Z,24.08
2022-08-29T19:51:32.566Z,24.05
2022-08-29T19:53:37.531Z,24.01
2022-08-29T19:55:40.608Z,23.99
2022-08-29T19:57:44.029Z,23.98
2022-08-29T19:59:47.313Z,23.96
2022-08-29T20:01:51.870Z,23.94
2022-08-29T20:03:55.305Z,23.88
2022-08-29T20:05:59.561Z,23.84
2022-08-29T20:08:03.248Z,23.79
2022-08-29T20:10:09.636Z,23.78
2022-08-29T20:12:12.649Z,23.76
2022-08-29T20:14:16.769Z,23.74
2022-08-29T20:16:22.199Z,23.71
2022-08-29T20:18:25.352Z,23.66
2022-08-29T20:20:31.995Z,23.60
2022-08-29T20:22:35.142Z,23.56
2022-08-29T20:24:38.261Z,23.54
2022-08-29T20:26:42.722Z,23.47
2022-08-29T20:28:45.797Z,23.41
2022-08-29T20:30:49.891Z,23.37
2022-08-29T20:32:53.595Z,23.35
2022-08-29T20:34:57.137Z,23.32
2022-08-29T20:37:14.031Z,23.31
2022-08-29T20:39:20.217Z,23.20
2022-08-29T20:41:23.269Z,23.13
2022-08-29T20:43:28.584Z,23.06
2022-08-29T20:45:31.613Z,23.02
2022-08-29T20:47:34.631Z,22.95
2022-08-29T20:49:37.696Z,22.90
2022-08-29T20:51:43.991Z,22.86
2022-08-29T20:53:47.078Z,22.83
2022-08-29T20:55:50.065Z,22.77
2022-08-29T20:57:54.793Z,22.75
2022-08-29T20:59:59.369Z,22.75
2022-08-29T21:02:02.986Z,22.74
2022-08-29T21:04:24.465Z,22.72
2022-08-29T21:06:28.231Z,22.70
2022-08-29T21:08:33.008Z,22.66
2022-08-29T21:10:37.235Z,22.62
2022-08-29T21:12:40.313Z,22.57
2022-08-29T21:14:43.664Z,22.56
2022-08-29T21:16:48.050Z,22.51
2022-08-29T21:18:52.558Z,22.50
2022-08-29T21:20:55.611Z,22.48
2022-08-29T21:23:00.654Z,22.44
2022-08-29T21:25:03.721Z,22.39
2022-08-29T21:27:07.156Z,22.32
2022-08-29T21:29:10.455Z,22.27
2022-08-29T21:31:15.407Z,22.25
2022-08-29T21:33:20.660Z,22.21
2022-08-29T21:35:24.464Z,22.22
2022-08-29T21:37:27.926Z,22.14
2022-08-29T21:39:31.439Z,22.07
2022-08-29T21:41:37.703Z,22.00
2022-08-29T21:43:40.719Z,21.95
2022-08-29T21:45:44.898Z,21.93
2022-08-29T21:47:49.695Z,21.93
2022-08-29T21:49:54.109Z,21.91
2022-08-29T21:51:57.343Z,21.89
2022-08-29T21:54:00.788Z,21.87
2022-08-29T21:56:04.335Z,21.85
2022-08-29T21:58:08.005Z,21.84
2022-08-29T22:00:12.488Z,21.81
2022-08-29T22:02:17.501Z,21.78
2022-08-29T22:04:28.414Z,21.77
2022-08-29T22:06:36.986Z,21.75
2022-08-29T22:08:40.019Z,21.74
2022-08-29T22:10:49.222Z,21.72
2022-08-29T22:12:52.883Z,21.70
2022-08-29T22:15:13.345Z,21.69
2022-08-29T22:17:16.831Z,21.67
2022-08-29T22:19:21.013Z,21.65
2022-08-29T22:21:24.605Z,21.59
2022-08-29T22:23:29.627Z,21.57
2022-08-29T22:25:32.717Z,21.55
2022-08-29T22:27:35.774Z,21.53
2022-08-29T22:29:38.969Z,21.46
2022-08-29T22:31:42.947Z,21.43
2022-08-29T22:33:46.309Z,21.40
2022-08-29T22:35:49.386Z,21.36
2022-08-29T22:37:54.409Z,21.34
2022-08-29T22:39:59.066Z,21.34
2022-08-29T22:42:02.557Z,21.33
2022-08-29T22:44:47.122Z,21.31
2022-08-29T22:46:30.052Z,21.30
2022-08-29T22:48:33.148Z,21.29
2022-08-29T22:50:36.183Z,21.27
2022-08-29T22:52:39.470Z,21.26
2022-08-29T22:54:42.464Z,21.22
2022-08-29T22:56:46.940Z,21.19
2022-08-29T22:58:50.473Z,21.15
2022-08-29T23:00:53.758Z,21.11
2022-08-29T23:02:56.907Z,21.10
2022-08-29T23:05:00.138Z,21.07
2022-08-29T23:07:03.544Z,21.07
2022-08-29T23:09:07.104Z,21.06
2022-08-29T23:11:11.030Z,21.05
2022-08-29T23:13:15.679Z,21.05
2022-08-29T23:15:19.588Z,21.01
2022-08-29T23:17:22.621Z,20.99
2022-08-29T23:19:25.605Z,20.97
2022-08-29T23:21:28.946Z,20.97
2022-08-29T23:23:32.285Z,20.94
2022-08-29T23:25:35.405Z,20.91
2022-08-29T23:27:38.926Z,20.92
2022-08-29T23:29:43.331Z,20.85
2022-08-29T23:31:46.394Z,20.80
2022-08-29T23:33:50.229Z,20.78
2022-08-29T23:35:53.490Z,20.75
2022-08-29T23:37:56.551Z,20.73
2022-08-29T23:39:59.986Z,20.73
2022-08-29T23:42:03.449Z,20.69
2022-08-29T23:44:06.855Z,20.64
2022-08-29T23:46:11.665Z,20.61
2022-08-29T23:48:14.907Z,20.59
2022-08-29T23:50:18.224Z,20.53
2022-08-29T23:52:21.265Z,20.48
2022-08-29T23:54:24.255Z,20.42
2022-08-29T23:56:30.008Z,20.38
2022-08-29T23:58:33.076Z,20.35
